createdAt,value
2023-07-14T00:00:27.981Z,2.58
2023-07-14T00:02:55.083Z,3.13
2023-07-14T00:05:23.338Z,2.58
2023-07-14T00:07:51.564Z,2.93
2023-07-14T00:10:25.216Z,2.83
2023-07-14T00:12:54.707Z,3.17
2023-07-14T00:15:24.874Z,3.50
2023-07-14T00:17:52.882Z,3.35
2023-07-14T00:20:27.836Z,3.13
2023-07-14T00:22:55.512Z,2.97
2023-07-14T00:25:23.833Z,2.55
2023-07-14T00:27:54.752Z,3.07
2023-07-14T00:30:25.416Z,2.78
2023-07-14T00:32:53.688Z,3.38
2023-07-14T00:35:24.383Z,3.33
2023-07-14T00:37:52.572Z,3.08
2023-07-14T00:40:21.904Z,3.00
2023-07-14T00:42:51.604Z,3.17
2023-07-14T00:45:20.385Z,3.03
2023-07-14T00:47:54.269Z,3.17
2023-07-14T00:50:31.210Z,3.03
2023-07-14T00:52:59.770Z,3.38
2023-07-14T00:55:56.716Z,3.63
2023-07-14T00:58:27.519Z,3.47
2023-07-14T01:01:01.262Z,3.15
2023-07-14T01:03:28.747Z,2.78
2023-07-14T01:05:56.201Z,3.38
2023-07-14T01:08:23.280Z,2.90
2023-07-14T01:10:50.444Z,3.08
2023-07-14T01:13:17.390Z,3.42
2023-07-14T01:15:44.361Z,3.70
2023-07-14T01:18:11.681Z,3.63
2023-07-14T01:20:39.653Z,3.60
2023-07-14T01:23:15.148Z,3.70
2023-07-14T01:25:58.665Z,4.05
2023-07-14T01:28:25.888Z,3.60
2023-07-14T01:30:52.844Z,3.47
2023-07-14T01:33:20.026Z,3.65
2023-07-14T01:35:54.905Z,3.38
2023-07-14T01:38:21.908Z,3.08
2023-07-14T01:40:48.869Z,3.67
2023-07-14T01:43:15.956Z,3.58
2023-07-14T01:45:47.024Z,3.78
2023-07-14T01:48:15.115Z,2.83
2023-07-14T01:50:59.698Z,3.47
2023-07-14T01:53:30.049Z,3.20
2023-07-14T01:55:58.214Z,3.33
2023-07-14T01:58:28.256Z,3.50
2023-07-14T02:00:55.378Z,3.33
2023-07-14T02:03:46.888Z,3.05
2023-07-14T02:06:15.946Z,2.60
2023-07-14T02:08:46.178Z,3.45
2023-07-14T02:11:23.866Z,2.97
2023-07-14T02:13:55.049Z,2.88
2023-07-14T02:16:21.959Z,3.13
2023-07-14T02:18:48.984Z,3.22
2023-07-14T02:21:22.093Z,3.10
2023-07-14T02:23:49.068Z,3.47
2023-07-14T02:26:34.844Z,3.90
2023-07-14T02:29:01.892Z,3.75
2023-07-14T02:31:53.025Z,3.15
2023-07-14T02:34:20.618Z,3.35
2023-07-14T02:37:03.202Z,3.42
2023-07-14T02:39:35.082Z,3.95
2023-07-14T02:42:01.990Z,4.10
2023-07-14T02:44:33.190Z,3.60
2023-07-14T02:47:21.465Z,3.95
2023-07-14T02:49:49.866Z,3.83
2023-07-14T02:52:17.079Z,3.45
2023-07-14T02:54:44.059Z,4.07
2023-07-14T02:57:11.034Z,3.25
2023-07-14T02:59:37.944Z,3.83
2023-07-14T03:02:06.595Z,3.70
2023-07-14T03:04:36.129Z,3.67
2023-07-14T03:07:04.076Z,4.43
2023-07-14T03:09:31.039Z,3.75
2023-07-14T03:11:57.920Z,4.03
2023-07-14T03:14:25.265Z,4.70
2023-07-14T03:16:52.353Z,6.30
2023-07-14T03:19:19.555Z,5.70
2023-07-14T03:21:46.725Z,5.50
2023-07-14T03:24:13.830Z,5.20
2023-07-14T03:26:41.204Z,5.22
2023-07-14T03:29:08.432Z,5.43
2023-07-14T03:31:35.544Z,4.90
2023-07-14T03:34:02.495Z,4.68
2023-07-14T03:36:29.554Z,4.35
2023-07-14T03:39:26.267Z,5.22
2023-07-14T03:41:54.022Z,4.38
2023-07-14T03:44:21.097Z,4.85
2023-07-14T03:46:48.172Z,4.40
2023-07-14T03:49:15.424Z,4.65
2023-07-14T03:51:42.685Z,5.03
2023-07-14T03:54:10.665Z,4.28
2023-07-14T03:56:37.709Z,4.70
2023-07-14T03:59:04.741Z,5.00
2023-07-14T04:01:31.698Z,4.18
2023-07-14T04:04:01.339Z,4.40
2023-07-14T04:06:29.529Z,3.75
2023-07-14T04:09:00.752Z,4.13
2023-07-14T04:11:27.969Z,3.83
2023-07-14T04:13:55.094Z,5.25
2023-07-14T04:16:25.085Z,4.47
2023-07-14T04:18:52.201Z,4.03
2023-07-14T04:21:25.441Z,3.70
2023-07-14T04:23:53.737Z,3.67
2023-07-14T04:26:20.958Z,3.83
2023-07-14T04:28:48.351Z,3.58
2023-07-14T04:31:15.262Z,3.30
2023-07-14T04:33:49.701Z,3.65
2023-07-14T04:36:16.834Z,3.72
2023-07-14T04:38:49.098Z,4.07
2023-07-14T04:41:15.944Z,3.65
2023-07-14T04:43:42.775Z,3.25
2023-07-14T04:46:10.909Z,3.67
2023-07-14T04:48:38.021Z,3.57
2023-07-14T04:51:04.852Z,3.72
2023-07-14T04:53:31.685Z,3.33
2023-07-14T04:55:58.733Z,3.17
2023-07-14T04:58:25.708Z,3.53
2023-07-14T05:00:52.617Z,3.20
2023-07-14T05:03:19.803Z,3.13
2023-07-14T05:05:47.103Z,3.30
2023-07-14T05:08:14.000Z,3.55
2023-07-14T05:10:40.925Z,3.58
2023-07-14T05:13:07.943Z,3.35
2023-07-14T05:15:34.999Z,3.20
2023-07-14T05:18:02.057Z,3.38
2023-07-14T05:20:30.350Z,2.97
2023-07-14T05:22:57.539Z,2.75
2023-07-14T05:25:24.656Z,3.08
2023-07-14T05:27:51.628Z,3.03
2023-07-14T05:30:19.844Z,2.60
2023-07-14T05:32:47.398Z,2.37
2023-07-14T05:35:14.593Z,3.08
2023-07-14T05:37:41.824Z,3.65
2023-07-14T05:40:11.561Z,3.10
2023-07-14T05:42:39.316Z,3.08
2023-07-14T05:45:07.215Z,3.33
2023-07-14T05:47:35.466Z,3.30
2023-07-14T05:50:02.593Z,3.27
2023-07-14T05:52:29.720Z,3.42
2023-07-14T05:54:56.646Z,3.15
2023-07-14T05:57:23.551Z,3.38
2023-07-14T05:59:50.431Z,2.97
2023-07-14T06:02:17.407Z,3.78
2023-07-14T06:04:44.337Z,3.00
2023-07-14T06:07:11.559Z,3.10
2023-07-14T06:09:39.070Z,2.80
2023-07-14T06:12:06.717Z,3.53
2023-07-14T06:14:34.436Z,2.90
2023-07-14T06:17:02.083Z,3.05
2023-07-14T06:19:29.274Z,3.30
2023-07-14T06:21:56.847Z,3.38
2023-07-14T06:24:24.404Z,2.70
2023-07-14T06:26:52.222Z,3.20
2023-07-14T06:29:19.751Z,3.22
2023-07-14T06:31:46.769Z,2.70
2023-07-14T06:34:14.873Z,3.25
2023-07-14T06:36:41.935Z,3.15
2023-07-14T06:39:09.188Z,3.10
2023-07-14T06:41:36.068Z,3.22
2023-07-14T06:44:19.748Z,3.53
2023-07-14T06:46:50.998Z,3.35
2023-07-14T06:49:21.956Z,2.47
2023-07-14T06:51:49.750Z,2.75
2023-07-14T06:54:17.344Z,2.90
2023-07-14T06:56:44.227Z,3.20
2023-07-14T06:59:11.136Z,3.03
2023-07-14T07:01:38.115Z,3.53
2023-07-14T07:04:05.550Z,2.67
2023-07-14T07:06:32.588Z,2.65
2023-07-14T07:08:59.572Z,2.67
2023-07-14T07:11:26.530Z,2.30
2023-07-14T07:13:53.518Z,2.95
2023-07-14T07:16:20.533Z,2.42
2023-07-14T07:18:47.460Z,2.65
2023-07-14T07:21:14.779Z,2.92
2023-07-14T07:23:41.823Z,2.25
2023-07-14T07:26:09.169Z,2.17
2023-07-14T07:28:36.362Z,2.22
2023-07-14T07:31:13.386Z,2.08
2023-07-14T07:33:41.183Z,2.72
2023-07-14T07:36:16.508Z,1.90
2023-07-14T07:38:53.056Z,2.75
2023-07-14T07:41:26.506Z,2.17
2023-07-14T07:43:53.536Z,2.72
2023-07-14T07:46:22.720Z,2.20
2023-07-14T07:48:50.402Z,2.53
2023-07-14T07:51:17.471Z,2.13
2023-07-14T07:53:44.474Z,2.60
2023-07-14T07:56:12.476Z,1.80
2023-07-14T07:58:39.830Z,2.20
2023-07-14T08:01:07.389Z,2.08
2023-07-14T08:03:35.442Z,2.40
2023-07-14T08:06:04.013Z,1.92
2023-07-14T08:08:31.040Z,2.20
2023-07-14T08:10:58.446Z,2.22
2023-07-14T08:13:26.897Z,2.22
2023-07-14T08:15:57.659Z,2.78
2023-07-14T08:18:25.308Z,2.42
2023-07-14T08:20:52.688Z,3.97
2023-07-14T08:23:21.357Z,2.95
2023-07-14T08:25:56.220Z,2.75
2023-07-14T08:28:23.237Z,2.47
2023-07-14T08:30:51.298Z,2.88
2023-07-14T08:33:19.365Z,3.20
2023-07-14T08:35:46.779Z,2.80
2023-07-14T08:38:13.742Z,2.88
2023-07-14T08:40:46.405Z,3.05
2023-07-14T08:43:38.333Z,2.72
2023-07-14T08:46:11.085Z,2.38
2023-07-14T08:48:39.549Z,2.63
2023-07-14T08:51:19.462Z,2.83
2023-07-14T08:53:51.840Z,2.80
2023-07-14T08:56:20.090Z,2.30
2023-07-14T08:58:47.152Z,2.97
2023-07-14T09:01:56.453Z,3.75
2023-07-14T09:04:36.859Z,2.75
2023-07-14T09:07:05.537Z,2.97
2023-07-14T09:09:37.237Z,2.75
2023-07-14T09:12:07.128Z,2.50
2023-07-14T09:14:44.435Z,3.17
2023-07-14T09:17:17.459Z,3.53
2023-07-14T09:20:07.684Z,3.10
2023-07-14T09:23:01.975Z,2.88
2023-07-14T09:25:44.857Z,2.10
2023-07-14T09:28:42.425Z,2.70
2023-07-14T09:31:40.524Z,2.45
2023-07-14T09:34:25.064Z,2.15
2023-07-14T09:36:52.981Z,2.10
2023-07-14T09:39:29.603Z,2.08
2023-07-14T09:41:57.985Z,2.22
2023-07-14T09:44:25.542Z,1.63
2023-07-14T09:46:52.529Z,1.73
2023-07-14T09:49:39.735Z,1.60
2023-07-14T09:52:16.406Z,1.60
2023-07-14T09:54:50.124Z,2.10
2023-07-14T09:57:29.070Z,1.80
2023-07-14T10:00:16.137Z,2.03
2023-07-14T10:02:43.156Z,1.90
2023-07-14T10:05:29.180Z,2.03
2023-07-14T10:07:56.169Z,1.50
2023-07-14T10:10:27.494Z,2.00
2023-07-14T10:12:54.548Z,1.90
2023-07-14T10:15:32.889Z,1.70
2023-07-14T10:18:01.402Z,2.22
2023-07-14T10:20:28.617Z,2.42
2023-07-14T10:22:58.481Z,2.30
2023-07-14T10:25:25.835Z,2.60
2023-07-14T10:28:08.514Z,2.47
2023-07-14T10:30:38.047Z,2.65
2023-07-14T10:33:05.067Z,2.50
2023-07-14T10:35:32.976Z,1.83
2023-07-14T10:38:46.581Z,2.47
2023-07-14T10:41:13.782Z,2.20
2023-07-14T10:43:50.212Z,2.70
2023-07-14T10:46:32.848Z,1.95
2023-07-14T10:49:06.442Z,2.15
2023-07-14T10:51:53.244Z,1.85
2023-07-14T10:54:21.236Z,2.33
2023-07-14T10:56:50.354Z,2.47
2023-07-14T10:59:52.269Z,2.00
2023-07-14T11:02:36.358Z,2.17
2023-07-14T11:05:11.503Z,2.13
2023-07-14T11:07:38.532Z,2.17
2023-07-14T11:10:28.533Z,1.88
2023-07-14T11:13:02.831Z,2.10
2023-07-14T11:15:42.306Z,1.75
2023-07-14T11:18:14.169Z,1.90
2023-07-14T11:20:53.267Z,1.70
2023-07-14T11:23:40.239Z,2.17
2023-07-14T11:26:13.792Z,1.95
2023-07-14T11:28:51.380Z,1.95
2023-07-14T11:31:35.972Z,2.60
2023-07-14T11:34:21.205Z,2.28
2023-07-14T11:37:12.934Z,2.22
2023-07-14T11:39:49.190Z,1.92
2023-07-14T11:42:24.398Z,2.50
2023-07-14T11:44:52.017Z,2.22
2023-07-14T11:47:26.240Z,2.40
2023-07-14T11:49:54.565Z,1.80
2023-07-14T11:52:26.743Z,2.33
2023-07-14T11:54:53.648Z,1.75
2023-07-14T11:57:21.068Z,2.25
2023-07-14T12:00:14.160Z,3.25
2023-07-14T12:02:50.906Z,2.10
2023-07-14T12:05:19.751Z,2.58
2023-07-14T12:08:05.668Z,2.03
2023-07-14T12:10:44.590Z,2.15
2023-07-14T12:13:20.276Z,2.17
2023-07-14T12:15:49.148Z,2.17
2023-07-14T12:18:36.253Z,2.08
2023-07-14T12:21:16.098Z,2.78
2023-07-14T12:24:06.474Z,3.28
2023-07-14T12:26:33.409Z,2.15
2023-07-14T12:29:06.270Z,1.75
2023-07-14T12:31:36.745Z,3.13
2023-07-14T12:34:04.593Z,2.20
2023-07-14T12:36:32.866Z,2.80
2023-07-14T12:39:01.077Z,2.63
2023-07-14T12:41:31.107Z,2.80
2023-07-14T12:44:01.322Z,1.77
2023-07-14T12:46:32.493Z,2.25
2023-07-14T12:49:04.377Z,2.30
2023-07-14T12:51:34.485Z,1.90
2023-07-14T12:54:04.664Z,1.85
2023-07-14T12:56:32.070Z,2.03
2023-07-14T12:59:05.502Z,1.90
2023-07-14T13:01:34.608Z,1.85
2023-07-14T13:04:03.975Z,1.95
2023-07-14T13:06:30.928Z,2.05
2023-07-14T13:08:58.415Z,2.10
2023-07-14T13:11:28.876Z,1.67
2023-07-14T13:13:57.554Z,2.10
2023-07-14T13:16:34.672Z,2.67
2023-07-14T13:19:01.871Z,2.40
2023-07-14T13:21:37.753Z,2.47
2023-07-14T13:24:27.594Z,2.33
2023-07-14T13:27:00.558Z,1.80
2023-07-14T13:29:40.075Z,1.80
2023-07-14T13:32:23.272Z,1.92
2023-07-14T13:34:52.114Z,1.70
2023-07-14T13:37:19.637Z,2.45
2023-07-14T13:39:46.565Z,2.33
2023-07-14T13:42:35.588Z,1.98
2023-07-14T13:45:04.123Z,2.13
